Kanopolis, Kansas
Current Conditions -  °F | °C
As of 4:53 AM on Friday 24 Oct 2014 (Local Time) from KSLN Reporting Station
Haze Haze  
Wind Chill: 60°   Ceiling: Unl
Heat Index: 60°   Visibility: 6mi
Dew Point: 57°   Wind: 10mph
Humidity: 90%   Direction: 190°S
Pressure: 30.01"   Gusts: NA
Location:  38.71°N, 98.16°W
Report Text: KSLN 240953Z AUTO 19009KT 6SM BR CLR 16/14 A3001 RMK AO2 SLP155 T01560139
Loading
Personal Weather Stations






























Interactive Weather Map
Tropical Storm Tracking
New forecast layout! Learn more

10-Day Weather Forecast

Advertisements
Track Severe Weather on mobile